Time;durP1;ratioP1;P1;durP2;ratioP2;P2;SDS_P1;SDS_P2;PMS_P1;PMS_P2;Temp;Humidity;BMP_temperature;BMP_pressure;BME280_temperature;BME280_humidity;BME280_pressure;Samples;Min_cycle;Max_cycle;Signal;HPM_P1;HPM_P2
2022/06/09 07:12:45;;;;;;;18.95;3.53;;;14.90;99.90;;;;;;5052878;28;20184;-74
2022/06/09 07:15:14;;;;;;;22.35;3.47;;;15.10;99.90;;;;;;5038334;28;20100;-74
2022/06/09 07:17:40;;;;;;;17.52;3.63;;;15.10;99.90;;;;;;5050574;28;20032;-76
2022/06/09 07:20:07;;;;;;;15.13;3.45;;;15.30;99.90;;;;;;5030171;28;20094;-73
2022/06/09 07:22:33;;;;;;;16.35;3.28;;;15.40;99.90;;;;;;5054642;28;20037;-72
2022/06/09 07:24:59;;;;;;;21.90;3.42;;;15.50;99.90;;;;;;5052419;28;20061;-74
2022/06/09 07:27:25;;;;;;;14.82;3.42;;;15.50;99.90;;;;;;5055773;28;20616;-72
2022/06/09 07:29:52;;;;;;;14.18;2.80;;;15.60;99.90;;;;;;5034897;28;20463;-73
2022/06/09 07:32:18;;;;;;;13.20;3.00;;;15.60;99.90;;;;;;5061082;28;20036;-72
2022/06/09 07:34:44;;;;;;;11.65;2.50;;;15.60;99.90;;;;;;5059395;28;20492;-76
2022/06/09 07:37:11;;;;;;;15.52;3.00;;;15.70;99.90;;;;;;5064319;28;20025;-75
2022/06/09 07:39:37;;;;;;;16.80;3.00;;;15.70;99.90;;;;;;5050334;28;20046;-72
2022/06/09 07:42:03;;;;;;;13.65;2.40;;;15.70;99.90;;;;;;5067460;28;20035;-73
2022/06/09 07:44:29;;;;;;;18.38;3.35;;;15.80;99.90;;;;;;5065049;28;20031;-74
2022/06/09 07:46:55;;;;;;;16.08;3.15;;;15.90;99.90;;;;;;5055819;28;20052;-75
2022/06/09 07:49:21;;;;;;;17.52;3.10;;;16.00;99.90;;;;;;5076583;28;20430;-73
2022/06/09 07:51:46;;;;;;;14.95;2.85;;;16.10;99.90;;;;;;5064375;28;20104;-77
2022/06/09 07:54:12;;;;;;;16.33;3.45;;;16.30;99.90;;;;;;5061893;28;20142;-74
2022/06/09 07:56:38;;;;;;;12.27;2.75;;;16.40;99.30;;;;;;5066875;28;20390;-72
2022/06/09 07:59:08;;;;;;;12.93;2.95;;;16.40;99.90;;;;;;5071261;28;20067;-73
2022/06/09 08:01:35;;;;;;;14.05;2.55;;;16.50;99.40;;;;;;5053408;28;20039;-73
2022/06/09 08:04:02;;;;;;;12.88;2.45;;;16.60;99.80;;;;;;5070881;28;20082;-75
2022/06/09 08:06:28;;;;;;;11.25;2.58;;;16.70;99.20;;;;;;5089308;28;20032;-73
2022/06/09 08:08:56;;;;;;;14.38;2.40;;;16.60;98.40;;;;;;5072617;28;20032;-73
2022/06/09 08:11:23;;;;;;;10.65;2.50;;;16.60;98.50;;;;;;5059258;28;20029;-76
2022/06/09 08:13:49;;;;;;;12.80;2.90;;;16.60;97.90;;;;;;5069441;28;20463;-73
2022/06/09 08:16:15;;;;;;;15.48;2.50;;;16.60;98.00;;;;;;5052780;28;20075;-72
2022/06/09 08:18:41;;;;;;;11.85;2.63;;;16.70;97.70;;;;;;5052469;28;20033;-74
2022/06/09 08:21:07;;;;;;;15.27;2.47;;;16.80;97.10;;;;;;5059134;28;20071;-73
2022/06/09 08:23:33;;;;;;;10.77;2.38;;;16.90;97.50;;;;;;5066733;28;20040;-74
2022/06/09 08:25:59;;;;;;;12.55;2.60;;;17.00;97.10;;;;;;5068882;28;20037;-73
2022/06/09 08:28:25;;;;;;;11.70;2.50;;;17.10;97.50;;;;;;5055060;28;20024;-77
2022/06/09 08:30:54;;;;;;;13.82;2.65;;;17.20;96.40;;;;;;5062689;28;20024;-73
2022/06/09 08:33:21;;;;;;;13.30;2.67;;;17.40;96.60;;;;;;5052400;28;20021;-74
2022/06/09 08:35:48;;;;;;;14.05;2.70;;;17.40;96.20;;;;;;5053148;28;20060;-75
2022/06/09 08:38:14;;;;;;;12.70;2.78;;;17.50;95.70;;;;;;5042968;28;20046;-74
2022/06/09 08:40:46;;;;;;;11.32;2.63;;;17.60;96.90;;;;;;5059141;28;20039;-75
2022/06/09 08:43:34;;;;;;;11.88;2.25;;;17.70;97.10;;;;;;5050551;28;20162;-74
2022/06/09 08:46:13;;;;;;;12.70;2.55;;;17.70;95.00;;;;;;5066859;28;20021;-75
2022/06/09 08:48:43;;;;;;;11.40;2.43;;;17.60;95.30;;;;;;5070376;28;20027;-74
2022/06/09 08:51:21;;;;;;;9.52;2.33;;;17.60;97.20;;;;;;5070329;28;20590;-74
2022/06/09 08:53:58;;;;;;;7.45;1.80;;;17.70;95.70;;;;;;5069932;28;20033;-74
2022/06/09 08:56:30;;;;;;;12.02;2.38;;;17.90;93.10;;;;;;5069831;28;20421;-74
2022/06/09 08:59:10;;;;;;;11.25;1.88;;;18.00;92.10;;;;;;5070553;28;20078;-75
2022/06/09 09:01:48;;;;;;;10.88;2.15;;;18.00;91.10;;;;;;5043327;28;20025;-75
2022/06/09 09:04:19;;;;;;;12.43;2.60;;;18.10;92.60;;;;;;5050373;28;20032;-73
2022/06/09 09:06:49;;;;;;;18.50;3.08;;;18.30;97.40;;;;;;5057824;28;20115;-74
2022/06/09 09:09:22;;;;;;;12.57;3.00;;;18.60;96.60;;;;;;5065482;28;20128;-74
2022/06/09 09:11:51;;;;;;;13.98;3.22;;;18.60;97.50;;;;;;5051136;28;20127;-74
2022/06/09 09:14:21;;;;;;;12.95;2.90;;;18.60;97.70;;;;;;5058021;28;20025;-74
2022/06/09 09:17:14;;;;;;;13.77;3.20;;;18.50;97.50;;;;;;5044551;28;20376;-73
2022/06/09 09:19:55;;;;;;;16.20;2.50;;;18.60;98.00;;;;;;5034960;28;20021;-73
2022/06/09 09:22:38;;;;;;;8.77;2.17;;;18.60;98.00;;;;;;5044388;28;20021;-74
2022/06/09 09:25:29;;;;;;;11.10;2.25;;;18.70;95.00;;;;;;5028037;28;20033;-75
2022/06/09 09:28:19;;;;;;;11.95;2.42;;;18.60;94.60;;;;;;5056886;28;20107;-74
2022/06/09 09:31:01;;;;;;;11.65;2.72;;;18.50;95.70;;;;;;5050711;28;20063;-73
2022/06/09 09:33:28;;;;;;;16.35;3.03;;;18.50;95.30;;;;;;5042465;28;20037;-73
2022/06/09 09:36:16;;;;;;;15.38;2.45;;;18.70;95.80;;;;;;5030803;28;20025;-73
2022/06/09 09:38:49;;;;;;;16.10;3.10;;;18.70;94.40;;;;;;5032849;28;20757;-73
2022/06/09 09:41:31;;;;;;;15.35;2.67;;;18.70;94.30;;;;;;5049438;28;20605;-72
2022/06/09 09:43:57;;;;;;;13.13;2.75;;;18.60;94.70;;;;;;5047415;28;20037;-72
2022/06/09 09:46:33;;;;;;;12.82;2.70;;;18.50;95.80;;;;;;5032042;28;20033;-74
2022/06/09 09:49:15;;;;;;;15.48;3.10;;;18.50;95.50;;;;;;5036376;28;20090;-72
2022/06/09 09:51:42;;;;;;;13.43;3.20;;;18.50;95.10;;;;;;5044673;28;20066;-72
2022/06/09 09:54:19;;;;;;;12.95;2.88;;;18.50;95.00;;;;;;5032782;28;20147;-73
2022/06/09 09:56:45;;;;;;;17.50;2.90;;;18.40;95.90;;;;;;5031829;28;20021;-73
2022/06/09 09:59:25;;;;;;;12.07;2.53;;;18.30;96.10;;;;;;5035528;28;20483;-72
2022/06/09 10:10:26;;;;;;;14.80;2.83;;;18.20;98.00;;;;;;4966466;28;20816;-73
2022/06/09 10:12:56;;;;;;;17.90;2.97;;;18.10;97.40;;;;;;4956963;28;20094;-75
2022/06/09 10:15:26;;;;;;;15.90;2.95;;;18.10;96.80;;;;;;4971354;28;20058;-74
2022/06/09 10:17:58;;;;;;;15.00;3.08;;;18.00;97.50;;;;;;4968711;28;20026;-75
2022/06/09 10:20:33;;;;;;;14.98;2.60;;;18.00;97.40;;;;;;4971124;28;20105;-75
2022/06/09 10:23:09;;;;;;;12.20;2.72;;;17.90;96.50;;;;;;4974508;28;20053;-74
2022/06/09 10:25:57;;;;;;;18.42;2.85;;;17.90;96.70;;;;;;4957755;28;20047;-74
2022/06/09 10:28:32;;;;;;;9.55;2.50;;;17.80;97.30;;;;;;4932028;29;20567;-74
2022/06/09 10:31:16;;;;;;;15.63;2.88;;;17.80;97.50;;;;;;4962730;28;20100;-73
2022/06/09 10:34:26;;;;;;;14.40;2.38;;;17.80;97.90;;;;;;4966672;28;20038;-73
2022/06/09 10:37:13;;;;;;;12.45;2.90;;;17.80;96.80;;;;;;4949810;28;20034;-75
2022/06/09 10:40:01;;;;;;;15.05;2.70;;;17.80;97.20;;;;;;4950792;28;20085;-74
2022/06/09 10:42:47;;;;;;;13.80;2.78;;;17.70;98.50;;;;;;5030237;28;20494;-74
2022/06/09 10:45:23;;;;;;;12.00;2.58;;;17.60;99.10;;;;;;5026502;28;20040;-74
2022/06/09 10:57:22;;;;;;;18.05;3.47;;;17.30;99.30;;;;;;5012955;28;20498;-75
2022/06/09 10:59:51;;;;;;;16.13;2.60;;;17.40;99.60;;;;;;5028693;28;20025;-75
2022/06/09 11:02:21;;;;;;;15.60;2.90;;;17.30;99.10;;;;;;5047847;28;20494;-74
2022/06/09 11:04:47;;;;;;;18.50;3.08;;;17.30;99.50;;;;;;5032003;28;20119;-73
2022/06/09 11:07:19;;;;;;;14.60;3.00;;;17.30;99.90;;;;;;5043947;28;20048;-73
2022/06/09 11:10:03;;;;;;;14.63;2.78;;;17.30;99.90;;;;;;5039756;28;20029;-72
2022/06/09 11:12:43;;;;;;;17.48;3.05;;;17.30;99.50;;;;;;5051071;28;20025;-72
2022/06/09 11:15:40;;;;;;;18.17;3.28;;;17.40;99.70;;;;;;5032135;28;20065;-73
2022/06/09 11:18:31;;;;;;;24.40;4.07;;;17.40;99.90;;;;;;5052080;28;20065;-73
2022/06/09 11:21:18;;;;;;;16.02;3.15;;;17.50;99.90;;;;;;5053558;28;20136;-73
2022/06/09 11:23:44;;;;;;;18.13;3.35;;;17.60;99.90;;;;;;5064612;28;20024;-72
2022/06/09 11:26:47;;;;;;;21.63;3.65;;;17.70;99.20;;;;;;5068954;28;20039;-74
2022/06/09 11:29:37;;;;;;;15.27;2.88;;;17.70;99.00;;;;;;5056893;28;20031;-71
2022/06/09 11:32:17;;;;;;;17.02;3.08;;;17.70;98.80;;;;;;5067263;28;20633;-71
2022/06/09 11:34:58;;;;;;;17.27;2.63;;;17.70;98.20;;;;;;5059997;28;20037;-75
2022/06/09 11:37:56;;;;;;;19.92;3.00;;;17.60;98.50;;;;;;5068070;28;20067;-73
2022/06/09 11:40:46;;;;;;;18.55;3.17;;;17.60;98.30;;;;;;5058239;28;20029;-75
2022/06/09 11:43:26;;;;;;;18.73;3.33;;;17.50;98.40;;;;;;5058590;28;20551;-75
2022/06/09 11:45:54;;;;;;;16.98;2.78;;;17.50;98.90;;;;;;5051375;28;20033;-74
2022/06/09 11:48:39;;;;;;;21.10;2.85;;;17.40;98.60;;;;;;5062756;28;20020;-75
2022/06/09 11:51:06;;;;;;;18.02;2.95;;;17.40;98.80;;;;;;5063671;28;20029;-75
2022/06/09 11:53:38;;;;;;;18.08;3.38;;;17.40;98.70;;;;;;5035261;28;20360;-75
2022/06/09 11:56:33;;;;;;;17.92;3.80;;;17.50;99.30;;;;;;5061314;28;20159;-74
2022/06/09 11:59:23;;;;;;;14.88;3.00;;;17.60;99.00;;;;;;5058273;28;20664;-77
2022/06/09 12:01:48;;;;;;;;;;;17.60;98.50;;;;;;5055406;28;20032;-76
2022/06/09 12:04:30;;;;;;;17.50;3.38;;;17.70;97.50;;;;;;5071146;28;19953;-75
2022/06/09 12:07:11;;;;;;;14.80;2.88;;;17.60;97.60;;;;;;5069903;28;20623;-73
2022/06/09 12:09:55;;;;;;;17.40;2.83;;;17.60;98.40;;;;;;5070369;28;20467;-74
2022/06/09 12:12:34;;;;;;;14.10;2.42;;;17.60;97.10;;;;;;5068346;28;20064;-82
2022/06/09 12:15:11;;;;;;;13.98;2.72;;;17.60;97.40;;;;;;5067096;28;20044;-74
2022/06/09 12:17:51;;;;;;;15.30;2.85;;;17.70;97.40;;;;;;5050769;28;20052;-74
2022/06/09 12:20:26;;;;;;;15.55;3.10;;;17.60;96.50;;;;;;5061734;28;20533;-74
2022/06/09 12:23:47;;;;;;;16.55;2.88;;;17.60;96.80;;;;;;5083757;28;20541;-75
2022/06/09 12:26:14;;;;;;;15.95;2.47;;;17.70;96.70;;;;;;4974017;28;20050;-73
2022/06/09 12:28:52;;;;;;;15.88;2.50;;;17.70;96.10;;;;;;4969247;28;20039;-77
2022/06/09 12:31:31;;;;;;;17.27;3.00;;;17.80;97.40;;;;;;4967360;28;20038;-74
2022/06/09 12:34:04;;;;;;;16.25;2.97;;;17.80;96.60;;;;;;4966717;28;20039;-73
2022/06/09 12:36:44;;;;;;;12.52;2.22;;;17.90;94.90;;;;;;4967696;28;20068;-74
2022/06/09 12:39:23;;;;;;;13.00;2.50;;;18.00;95.90;;;;;;4971715;28;20035;-76
2022/06/09 12:42:27;;;;;;;10.80;2.20;;;18.20;96.40;;;;;;4961694;28;20039;-74
2022/06/09 12:45:12;;;;;;;17.02;2.97;;;18.30;95.70;;;;;;4948986;28;20031;-75
2022/06/09 12:47:56;;;;;;;12.68;2.50;;;18.40;94.50;;;;;;4965931;28;20058;-73
2022/06/09 12:50:38;;;;;;;15.35;2.28;;;18.30;93.50;;;;;;4966665;28;20109;-77
2022/06/09 12:53:07;;;;;;;12.80;2.20;;;18.30;92.40;;;;;;4954270;28;20035;-74
2022/06/09 12:55:40;;;;;;;13.52;2.42;;;18.30;92.70;;;;;;4945431;28;20031;-73
2022/06/09 12:58:31;;;;;;;13.40;2.10;;;18.40;92.60;;;;;;4966548;28;20657;-77
2022/06/09 13:01:00;;;;;;;11.55;2.22;;;18.60;89.80;;;;;;5047757;28;20433;-74
2022/06/09 13:03:40;;;;;;;10.40;1.98;;;18.70;92.00;;;;;;5053594;28;20111;-74
2022/06/09 13:06:10;;;;;;;;;;;18.80;90.30;;;;;;5053584;28;20047;-74
2022/06/09 13:08:44;;;;;;;12.80;2.10;;;18.80;90.70;;;;;;5070940;28;19908;-74
2022/06/09 13:11:19;;;;;;;10.90;2.28;;;18.80;89.30;;;;;;5045320;28;20059;-74
2022/06/09 13:13:45;;;;;;;12.05;1.95;;;18.80;90.80;;;;;;5070051;28;20370;-73
2022/06/09 13:16:23;;;;;;;11.40;1.98;;;18.70;88.90;;;;;;5042383;28;20054;-74
2022/06/09 13:19:17;;;;;;;11.80;1.88;;;18.70;90.40;;;;;;5015853;28;20028;-75
2022/06/09 13:21:44;;;;;;;11.73;2.08;;;18.70;89.50;;;;;;5046352;28;20041;-72
2022/06/09 13:24:44;;;;;;;13.40;2.30;;;18.70;91.60;;;;;;5049430;28;20036;-73
2022/06/09 13:27:15;;;;;;;10.15;2.22;;;18.70;91.40;;;;;;5039561;28;20059;-71
2022/06/09 13:29:56;;;;;;;13.57;2.20;;;18.70;90.90;;;;;;5049108;28;20033;-73
2022/06/09 13:32:22;;;;;;;11.20;2.30;;;18.80;92.30;;;;;;5031589;28;20025;-75
2022/06/09 13:34:50;;;;;;;16.83;2.33;;;19.00;92.10;;;;;;5031008;28;20483;-74
2022/06/09 13:37:22;;;;;;;12.82;2.17;;;19.10;93.30;;;;;;5027139;28;20029;-75
2022/06/09 13:40:03;;;;;;;12.73;2.35;;;19.20;90.80;;;;;;5031635;28;20036;-72
2022/06/09 13:42:32;;;;;;;11.50;2.20;;;19.00;92.30;;;;;;5031279;28;20032;-76
2022/06/09 13:45:02;;;;;;;12.38;2.30;;;18.90;92.80;;;;;;5049251;28;20037;-74
2022/06/09 13:47:34;;;;;;;22.98;3.22;;;18.80;93.40;;;;;;5043658;28;20574;-72
2022/06/09 13:50:12;;;;;;;16.08;3.00;;;18.80;94.60;;;;;;5023132;28;20026;-73
2022/06/09 13:52:48;;;;;;;14.85;2.75;;;18.70;95.50;;;;;;5031006;28;20029;-75
2022/06/09 13:55:21;;;;;;;16.38;2.78;;;18.80;95.40;;;;;;5011247;28;20079;-74
2022/06/09 13:57:49;;;;;;;16.23;2.53;;;18.70;95.00;;;;;;5042636;28;20040;-73
2022/06/09 14:00:23;;;;;;;15.85;3.15;;;18.60;94.70;;;;;;5051061;28;20060;-75
2022/06/09 14:03:04;;;;;;;17.83;2.80;;;18.40;95.70;;;;;;5027594;28;20064;-75
2022/06/09 14:05:37;;;;;;;18.30;3.38;;;18.20;95.70;;;;;;5046780;28;20474;-74
2022/06/09 14:08:03;;;;;;;19.10;3.30;;;18.00;96.70;;;;;;5040193;28;20151;-74
2022/06/09 14:10:30;;;;;;;19.38;2.78;;;17.80;98.30;;;;;;5022634;28;20021;-73
2022/06/09 14:12:57;;;;;;;17.38;2.67;;;17.80;98.70;;;;;;5050499;28;20063;-74
2022/06/09 14:15:26;;;;;;;14.05;2.65;;;17.80;98.40;;;;;;5031885;28;20025;-74
2022/06/09 14:17:53;;;;;;;16.73;3.27;;;17.70;98.70;;;;;;5046686;28;20060;-75
2022/06/09 14:20:27;;;;;;;18.38;2.55;;;17.70;98.70;;;;;;5030619;28;20262;-75
2022/06/09 14:22:53;;;;;;;13.40;2.42;;;17.60;98.10;;;;;;5054200;28;20266;-78
2022/06/09 14:25:19;;;;;;;17.85;2.47;;;17.60;98.90;;;;;;5053611;28;20638;-76
2022/06/09 14:27:45;;;;;;;15.13;2.55;;;17.60;98.50;;;;;;5049776;28;20024;-77
2022/06/09 14:30:14;;;;;;;12.13;2.42;;;17.60;97.80;;;;;;5040817;28;20036;-80
2022/06/09 14:32:39;;;;;;;15.20;2.35;;;17.60;98.30;;;;;;5065713;28;20029;-80
2022/06/09 14:35:06;;;;;;;15.48;2.60;;;17.60;97.80;;;;;;5038263;28;20028;-74
2022/06/09 14:37:32;;;;;;;11.90;2.10;;;17.60;97.40;;;;;;5062642;28;20036;-73
2022/06/09 14:39:58;;;;;;;15.43;2.42;;;17.60;97.80;;;;;;5062026;28;20741;-73
2022/06/09 14:42:23;;;;;;;16.00;2.88;;;17.70;98.00;;;;;;5067004;28;20025;-74
2022/06/09 14:44:49;;;;;;;12.70;2.25;;;17.70;96.90;;;;;;5055369;28;20581;-74
2022/06/09 14:47:22;;;;;;;13.95;2.53;;;17.70;97.30;;;;;;5051846;28;20079;-74
2022/06/09 14:49:48;;;;;;;11.40;2.15;;;17.70;98.10;;;;;;5062867;28;20033;-73
2022/06/09 14:52:16;;;;;;;12.35;2.47;;;17.70;97.70;;;;;;5065943;28;20082;-72
2022/06/09 14:54:43;;;;;;;14.90;2.80;;;17.70;97.80;;;;;;5064907;28;20490;-75
2022/06/09 14:57:15;;;;;;;12.30;2.15;;;17.60;98.10;;;;;;5046298;28;20025;-73
2022/06/09 14:59:41;;;;;;;17.52;2.75;;;17.50;98.60;;;;;;5044374;28;20051;-75
2022/06/09 15:02:17;;;;;;;14.35;2.30;;;17.50;99.30;;;;;;5062756;28;20674;-73
2022/06/09 15:04:43;;;;;;;11.70;1.95;;;17.50;99.50;;;;;;5064737;28;20500;-74
2022/06/09 15:07:14;;;;;;;16.88;2.35;;;17.60;99.20;;;;;;5067577;28;20119;-72
2022/06/09 15:09:41;;;;;;;13.90;2.53;;;17.60;99.30;;;;;;5064400;28;20056;-74
2022/06/09 15:12:07;;;;;;;15.95;2.67;;;17.50;99.00;;;;;;5055446;28;20024;-72
2022/06/09 15:14:33;;;;;;;15.70;2.47;;;17.50;97.90;;;;;;5052886;28;20044;-73
2022/06/09 15:16:59;;;;;;;14.63;2.53;;;17.50;99.20;;;;;;5052437;28;20072;-73
2022/06/09 15:19:24;;;;;;;15.93;2.53;;;17.50;98.60;;;;;;5052960;28;20477;-72
2022/06/09 15:21:50;;;;;;;16.85;2.45;;;17.50;98.30;;;;;;5050404;28;20027;-75
2022/06/09 15:24:16;;;;;;;14.85;2.15;;;17.50;98.60;;;;;;5050623;28;20041;-71
2022/06/09 15:26:43;;;;;;;14.85;2.40;;;17.50;97.40;;;;;;5047496;28;20075;-72
2022/06/09 15:29:08;;;;;;;15.93;1.90;;;17.60;97.70;;;;;;5043011;28;20028;-74
2022/06/09 15:31:35;;;;;;;15.60;2.35;;;17.60;97.40;;;;;;5060535;28;20039;-75
2022/06/09 15:34:00;;;;;;;12.77;2.28;;;17.60;97.60;;;;;;5029398;28;20029;-74
2022/06/09 15:36:27;;;;;;;11.68;2.25;;;17.60;97.70;;;;;;5060303;28;20470;-75
2022/06/09 15:38:53;;;;;;;16.20;2.70;;;17.50;98.80;;;;;;5039096;28;20032;-76
2022/06/09 15:41:20;;;;;;;16.33;2.67;;;17.50;98.10;;;;;;5050491;28;20029;-77
2022/06/09 15:43:45;;;;;;;14.70;2.88;;;17.50;98.50;;;;;;5050234;28;20028;-75
2022/06/09 15:46:11;;;;;;;11.75;2.22;;;17.50;99.00;;;;;;5067805;28;20029;-76
2022/06/09 15:48:37;;;;;;;12.70;2.28;;;17.50;99.40;;;;;;5065000;28;20086;-76
2022/06/09 15:51:03;;;;;;;18.55;2.55;;;17.40;98.20;;;;;;5070311;28;20017;-75
2022/06/09 15:53:29;;;;;;;15.32;2.50;;;17.40;99.70;;;;;;5057146;28;20512;-74
2022/06/09 15:55:55;;;;;;;14.77;2.72;;;17.40;99.90;;;;;;5063554;28;20025;-75
2022/06/09 15:58:22;;;;;;;15.30;2.28;;;17.40;99.90;;;;;;5068088;28;20151;-73
2022/06/09 16:00:49;;;;;;;13.48;2.20;;;17.40;99.90;;;;;;5068241;28;20020;-76
2022/06/09 16:03:16;;;;;;;15.73;2.47;;;17.30;99.90;;;;;;5064551;28;20023;-73
2022/06/09 16:05:43;;;;;;;12.35;2.45;;;17.30;99.90;;;;;;5067314;28;20078;-74
2022/06/09 16:08:09;;;;;;;15.02;2.30;;;17.20;99.90;;;;;;5046926;28;20486;-74
2022/06/09 16:10:41;;;;;;;18.02;3.15;;;17.20;99.90;;;;;;5058045;28;20025;-74
2022/06/09 16:13:07;;;;;;;18.63;3.65;;;17.20;99.90;;;;;;5070072;28;20485;-77
2022/06/09 16:15:34;;;;;;;16.35;3.05;;;17.10;99.90;;;;;;5067898;28;20027;-74
2022/06/09 16:18:01;;;;;;;11.85;2.50;;;17.10;99.90;;;;;;5048394;28;20558;-75
2022/06/09 16:20:31;;;;;;;13.27;2.45;;;17.00;99.90;;;;;;5069718;28;20150;-73
2022/06/09 16:22:56;;;;;;;19.05;2.92;;;17.00;99.90;;;;;;5053190;28;20032;-79
2022/06/09 16:25:22;;;;;;;18.33;2.80;;;16.90;99.90;;;;;;5057540;28;20761;-77
2022/06/09 16:27:50;;;;;;;15.40;2.53;;;16.80;99.90;;;;;;5048001;28;20031;-76
2022/06/09 16:30:16;;;;;;;13.00;2.60;;;16.80;99.90;;;;;;5058985;28;20024;-78
2022/06/09 16:32:42;;;;;;;17.00;2.85;;;16.80;99.90;;;;;;5069860;28;20509;-77
2022/06/09 16:35:08;;;;;;;15.60;2.97;;;16.80;99.90;;;;;;5071358;28;20041;-76
2022/06/09 16:37:34;;;;;;;15.27;2.83;;;16.90;99.90;;;;;;5069931;28;20085;-74
2022/06/09 16:39:59;;;;;;;15.77;2.72;;;16.90;99.90;;;;;;5052299;28;20123;-77
2022/06/09 16:42:25;;;;;;;16.30;3.33;;;16.90;99.90;;;;;;5070387;28;20103;-77
2022/06/09 16:44:51;;;;;;;14.48;2.65;;;16.90;99.90;;;;;;5062748;28;20043;-78
2022/06/09 16:47:17;;;;;;;17.98;3.30;;;17.00;99.90;;;;;;5060354;28;20021;-74
2022/06/09 16:49:43;;;;;;;14.05;3.00;;;17.10;99.90;;;;;;5062177;28;20078;-77
2022/06/09 16:52:09;;;;;;;13.35;3.00;;;17.10;99.90;;;;;;5061864;28;20017;-75
2022/06/09 16:54:35;;;;;;;17.02;3.00;;;17.10;99.90;;;;;;5051217;28;20056;-74
2022/06/09 16:57:01;;;;;;;16.50;3.13;;;17.10;99.90;;;;;;5058965;28;20113;-74
2022/06/09 16:59:29;;;;;;;17.27;3.00;;;17.00;99.90;;;;;;5060675;28;20381;-75
2022/06/09 17:01:56;;;;;;;16.20;3.30;;;17.00;99.90;;;;;;5073304;28;20024;-78
2022/06/09 17:04:21;;;;;;;14.18;2.72;;;16.90;99.90;;;;;;5055233;28;20033;-77
2022/06/09 17:06:49;;;;;;;20.05;3.30;;;16.90;99.90;;;;;;5059263;28;20073;-75
2022/06/09 17:09:14;;;;;;;16.70;2.72;;;16.90;99.90;;;;;;5055262;28;20075;-74
2022/06/09 17:11:41;;;;;;;18.05;3.25;;;16.80;99.90;;;;;;5059959;28;20028;-76
2022/06/09 17:14:08;;;;;;;19.58;3.10;;;16.80;99.90;;;;;;5070565;28;20032;-74
2022/06/09 17:16:35;;;;;;;17.58;3.03;;;16.80;99.90;;;;;;5066393;28;20095;-77
2022/06/09 17:19:05;;;;;;;21.13;3.47;;;16.70;99.90;;;;;;5038930;28;20035;-75
2022/06/09 17:21:32;;;;;;;22.08;2.80;;;16.70;99.90;;;;;;5035194;28;20029;-75
2022/06/09 17:23:58;;;;;;;16.30;3.03;;;16.70;99.90;;;;;;5029360;28;20115;-77
2022/06/09 17:26:24;;;;;;;16.90;2.97;;;16.60;99.90;;;;;;5042681;28;20152;-76
2022/06/09 17:28:51;;;;;;;16.90;2.83;;;16.60;99.90;;;;;;5034344;28;20390;-74
2022/06/09 17:31:17;;;;;;;18.45;3.15;;;16.50;99.90;;;;;;5040872;28;20013;-74
2022/06/09 17:33:43;;;;;;;16.52;3.47;;;16.50;99.90;;;;;;5034224;28;20044;-74
2022/06/09 17:36:10;;;;;;;18.45;3.72;;;16.40;99.90;;;;;;5023333;28;20986;-75
2022/06/09 17:38:35;;;;;;;18.80;3.28;;;16.40;99.90;;;;;;5029577;28;20032;-75
2022/06/09 17:41:02;;;;;;;17.95;3.17;;;16.30;99.90;;;;;;5036988;28;20025;-73
2022/06/09 17:43:28;;;;;;;14.15;2.63;;;16.20;99.90;;;;;;5022232;28;20056;-73
2022/06/09 17:45:53;;;;;;;16.90;3.60;;;16.20;99.90;;;;;;5025644;28;20025;-74
2022/06/09 17:48:19;;;;;;;21.55;3.63;;;16.20;99.90;;;;;;5032322;28;20025;-73
2022/06/09 17:50:47;;;;;;;21.77;3.58;;;16.20;99.90;;;;;;5019557;28;20389;-74
2022/06/09 17:53:13;;;;;;;18.73;3.40;;;16.20;99.90;;;;;;5026492;28;20047;-73
2022/06/09 17:55:39;;;;;;;17.70;3.38;;;16.20;99.90;;;;;;5046971;28;20060;-74
2022/06/09 17:58:07;;;;;;;20.23;3.75;;;16.20;99.90;;;;;;5049512;28;20035;-72
2022/06/09 18:00:40;;;;;;;19.60;3.70;;;16.20;99.90;;;;;;5052431;28;20033;-74
2022/06/09 18:03:06;;;;;;;19.85;3.83;;;16.30;99.90;;;;;;5023118;28;20029;-72
2022/06/09 18:05:33;;;;;;;16.30;3.10;;;16.20;99.90;;;;;;5036370;28;20474;-74
2022/06/09 18:07:59;;;;;;;18.67;3.33;;;16.30;99.90;;;;;;5028203;28;20057;-74
2022/06/09 18:10:29;;;;;;;16.67;3.40;;;16.30;99.90;;;;;;5047465;28;20060;-71
2022/06/09 18:12:57;;;;;;;15.95;3.08;;;16.30;99.90;;;;;;5028875;28;20057;-74
2022/06/09 18:15:29;;;;;;;19.92;3.20;;;16.30;99.90;;;;;;5026255;28;20215;-73
2022/06/09 18:17:56;;;;;;;15.63;2.90;;;16.30;99.90;;;;;;5043512;28;20044;-74
2022/06/09 18:20:23;;;;;;;14.27;2.85;;;16.30;99.90;;;;;;5046677;28;20040;-74
2022/06/09 18:22:51;;;;;;;17.20;3.22;;;16.30;99.90;;;;;;5047455;28;20029;-73
2022/06/09 18:25:17;;;;;;;18.23;3.95;;;16.30;99.90;;;;;;5068406;28;20489;-73
2022/06/09 18:27:43;;;;;;;20.45;4.22;;;16.30;99.90;;;;;;5049276;28;20033;-72
2022/06/09 18:30:09;;;;;;;22.00;4.07;;;16.30;99.90;;;;;;5068830;28;20039;-76
2022/06/09 18:32:35;;;;;;;22.17;3.80;;;16.20;99.90;;;;;;5049697;28;20177;-73
2022/06/09 18:35:00;;;;;;;18.15;3.17;;;16.20;99.90;;;;;;5058017;28;20466;-72
2022/06/09 18:37:26;;;;;;;19.05;3.30;;;16.10;99.90;;;;;;5075015;28;20032;-75
2022/06/09 18:39:51;;;;;;;17.70;3.55;;;16.10;99.90;;;;;;5045492;28;20442;-76
2022/06/09 18:42:17;;;;;;;13.60;3.13;;;16.10;99.90;;;;;;5050981;28;20154;-74
2022/06/09 18:44:43;;;;;;;17.60;3.22;;;16.00;99.90;;;;;;5064371;28;20039;-76
2022/06/09 18:47:08;;;;;;;15.70;2.75;;;15.90;99.90;;;;;;5042959;28;20036;-76
2022/06/09 18:49:34;;;;;;;17.50;3.30;;;15.90;99.90;;;;;;5047657;28;20024;-76
2022/06/09 18:52:00;;;;;;;14.40;3.22;;;15.80;99.90;;;;;;5058562;28;20039;-74
2022/06/09 18:54:26;;;;;;;14.45;3.00;;;15.80;99.90;;;;;;5053435;28;20089;-75
2022/06/09 18:56:51;;;;;;;16.65;2.95;;;15.80;99.90;;;;;;5054515;28;20044;-74
2022/06/09 18:59:17;;;;;;;17.45;3.28;;;15.80;99.90;;;;;;5068600;28;20440;-75
2022/06/09 19:01:43;;;;;;;24.33;3.45;;;15.70;99.90;;;;;;5063613;28;20029;-76
2022/06/09 19:04:09;;;;;;;14.25;2.90;;;15.70;99.90;;;;;;5052896;28;20037;-75
2022/06/09 19:06:35;;;;;;;16.63;2.95;;;15.70;99.90;;;;;;5059854;28;20684;-75
2022/06/09 19:09:02;;;;;;;17.08;3.00;;;15.70;99.90;;;;;;5064290;28;20055;-79
2022/06/09 19:11:28;;;;;;;14.80;2.92;;;15.70;99.90;;;;;;5055634;28;20107;-79
2022/06/09 19:13:54;;;;;;;21.55;3.63;;;15.70;99.90;;;;;;5031392;28;20121;-79
2022/06/09 19:16:20;;;;;;;13.93;2.90;;;15.70;99.90;;;;;;5055800;28;20177;-79
2022/06/09 19:18:46;;;;;;;18.35;3.33;;;15.70;99.90;;;;;;5070371;28;20677;-78
2022/06/09 19:21:13;;;;;;;16.23;3.40;;;15.70;99.90;;;;;;5053854;28;20032;-78
2022/06/09 19:23:42;;;;;;;17.55;3.35;;;15.70;99.90;;;;;;5058777;28;20482;-80
2022/06/09 19:26:08;;;;;;;16.30;3.13;;;15.70;99.90;;;;;;5054686;28;20605;-78
2022/06/09 19:28:35;;;;;;;18.02;3.03;;;15.70;99.90;;;;;;5044883;28;20124;-78
2022/06/09 19:31:03;;;;;;;13.30;2.95;;;15.70;99.90;;;;;;5060746;28;20024;-78
2022/06/09 19:33:29;;;;;;;14.50;2.95;;;15.60;99.90;;;;;;5063499;28;20029;-78
2022/06/09 19:35:58;;;;;;;17.08;2.80;;;15.60;99.90;;;;;;5062307;28;20036;-79
2022/06/09 19:38:28;;;;;;;15.20;3.38;;;15.60;99.90;;;;;;5051844;28;20029;-78
2022/06/09 19:40:54;;;;;;;21.00;3.50;;;15.60;99.90;;;;;;5064684;28;20730;-79
2022/06/09 19:43:20;;;;;;;14.65;3.13;;;15.60;99.90;;;;;;5050903;28;20397;-78
2022/06/09 19:45:46;;;;;;;16.98;3.15;;;15.60;99.90;;;;;;5069710;28;20032;-79
2022/06/09 19:48:14;;;;;;;14.35;3.17;;;15.60;99.90;;;;;;5063808;28;20083;-78
2022/06/09 19:50:44;;;;;;;14.13;3.03;;;15.60;99.90;;;;;;5069172;28;20056;-80
2022/06/09 19:53:13;;;;;;;14.48;3.60;;;15.60;99.90;;;;;;5066213;28;20086;-80
2022/06/09 19:55:42;;;;;;;18.02;3.20;;;15.50;99.90;;;;;;5042398;28;20087;-79
2022/06/09 19:58:09;;;;;;;14.32;2.70;;;15.50;99.90;;;;;;5059212;28;20086;-78
2022/06/09 20:00:36;;;;;;;12.98;2.83;;;15.50;99.90;;;;;;5060190;28;20070;-79
2022/06/09 20:03:02;;;;;;;14.30;3.05;;;15.50;99.90;;;;;;5064577;28;20020;-78
2022/06/09 20:05:28;;;;;;;17.42;2.90;;;15.50;99.90;;;;;;5077157;28;20054;-77
2022/06/09 20:07:55;;;;;;;11.82;2.83;;;15.50;99.90;;;;;;5067052;28;20398;-79
2022/06/09 20:10:36;;;;;;;18.95;2.83;;;15.50;99.90;;;;;;5072570;28;20028;-81
2022/06/09 20:13:03;;;;;;;16.65;3.10;;;15.60;99.90;;;;;;5069275;28;20093;-78
2022/06/09 20:15:32;;;;;;;16.75;3.22;;;15.60;99.90;;;;;;5068915;28;20251;-78
2022/06/09 20:17:58;;;;;;;11.77;2.58;;;15.60;99.90;;;;;;5075740;28;20061;-79
2022/06/09 20:20:33;;;;;;;17.15;4.05;;;15.60;99.90;;;;;;5036128;28;20035;-79
2022/06/09 20:23:01;;;;;;;17.42;3.63;;;15.60;99.90;;;;;;5052302;28;20066;-77
2022/06/09 20:25:28;;;;;;;14.68;2.72;;;15.60;99.90;;;;;;5064210;28;20505;-80
2022/06/09 20:27:56;;;;;;;14.68;3.20;;;15.60;99.90;;;;;;5064407;28;20032;-78